sensor_id;sensor_type;location;lat;lon;timestamp;P1;durP1;ratioP1;P2;durP2;ratioP2
14306;SDS011;7237;49.500;11.400;2024-03-17T00:01:00;1.00;;;0.80;;
14306;SDS011;7237;49.500;11.400;2024-03-17T00:03:28;1.93;;;0.97;;
14306;SDS011;7237;49.500;11.400;2024-03-17T00:05:58;3.30;;;1.23;;
14306;SDS011;7237;49.500;11.400;2024-03-17T00:08:26;2.33;;;1.03;;
14306;SDS011;7237;49.500;11.400;2024-03-17T00:10:52;0.87;;;0.87;;
14306;SDS011;7237;49.500;11.400;2024-03-17T00:13:19;3.07;;;1.10;;
14306;SDS011;7237;49.500;11.400;2024-03-17T00:15:46;1.23;;;1.07;;
14306;SDS011;7237;49.500;11.400;2024-03-17T00:18:13;2.03;;;1.00;;
14306;SDS011;7237;49.500;11.400;2024-03-17T00:20:39;0.73;;;0.70;;
14306;SDS011;7237;49.500;11.400;2024-03-17T00:23:08;4.03;;;1.00;;
14306;SDS011;7237;49.500;11.400;2024-03-17T00:25:36;0.93;;;0.90;;
14306;SDS011;7237;49.500;11.400;2024-03-17T00:28:04;1.40;;;0.90;;
14306;SDS011;7237;49.500;11.400;2024-03-17T00:30:30;1.53;;;0.90;;
14306;SDS011;7237;49.500;11.400;2024-03-17T00:32:57;2.77;;;0.80;;
14306;SDS011;7237;49.500;11.400;2024-03-17T00:35:23;1.60;;;0.90;;
14306;SDS011;7237;49.500;11.400;2024-03-17T00:37:50;3.50;;;1.10;;
14306;SDS011;7237;49.500;11.400;2024-03-17T00:40:18;2.27;;;1.00;;
14306;SDS011;7237;49.500;11.400;2024-03-17T00:42:45;2.33;;;1.20;;
14306;SDS011;7237;49.500;11.400;2024-03-17T00:45:11;1.73;;;0.90;;
14306;SDS011;7237;49.500;11.400;2024-03-17T00:47:38;1.00;;;0.90;;
14306;SDS011;7237;49.500;11.400;2024-03-17T00:50:05;4.57;;;1.47;;
14306;SDS011;7237;49.500;11.400;2024-03-17T00:52:33;2.90;;;1.40;;
14306;SDS011;7237;49.500;11.400;2024-03-17T00:54:59;1.90;;;1.60;;
14306;SDS011;7237;49.500;11.400;2024-03-17T00:57:28;2.90;;;1.50;;
14306;SDS011;7237;49.500;11.400;2024-03-17T00:59:54;1.90;;;1.43;;
14306;SDS011;7237;49.500;11.400;2024-03-17T01:02:21;3.17;;;1.20;;
14306;SDS011;7237;49.500;11.400;2024-03-17T01:04:47;0.87;;;0.87;;
14306;SDS011;7237;49.500;11.400;2024-03-17T01:07:14;2.33;;;1.13;;
14306;SDS011;7237;49.500;11.400;2024-03-17T01:09:40;1.30;;;1.20;;
14306;SDS011;7237;49.500;11.400;2024-03-17T01:12:08;1.23;;;1.10;;
14306;SDS011;7237;49.500;11.400;2024-03-17T01:14:35;2.73;;;1.20;;
14306;SDS011;7237;49.500;11.400;2024-03-17T01:17:02;1.30;;;1.20;;
14306;SDS011;7237;49.500;11.400;2024-03-17T01:19:30;2.83;;;1.33;;
14306;SDS011;7237;49.500;11.400;2024-03-17T01:21:57;2.40;;;1.23;;
14306;SDS011;7237;49.500;11.400;2024-03-17T01:24:23;2.40;;;1.23;;
14306;SDS011;7237;49.500;11.400;2024-03-17T01:26:50;1.77;;;1.30;;
14306;SDS011;7237;49.500;11.400;2024-03-17T01:29:18;2.10;;;1.50;;
14306;SDS011;7237;49.500;11.400;2024-03-17T01:31:45;2.93;;;1.40;;
14306;SDS011;7237;49.500;11.400;2024-03-17T01:34:12;3.03;;;1.20;;
14306;SDS011;7237;49.500;11.400;2024-03-17T01:36:38;1.83;;;1.60;;
14306;SDS011;7237;49.500;11.400;2024-03-17T01:39:05;4.60;;;1.60;;
14306;SDS011;7237;49.500;11.400;2024-03-17T01:41:32;2.70;;;1.30;;
14306;SDS011;7237;49.500;11.400;2024-03-17T01:43:59;2.93;;;1.47;;
14306;SDS011;7237;49.500;11.400;2024-03-17T01:46:25;1.93;;;1.23;;
14306;SDS011;7237;49.500;11.400;2024-03-17T01:48:54;4.67;;;1.70;;
14306;SDS011;7237;49.500;11.400;2024-03-17T01:51:20;2.07;;;1.70;;
14306;SDS011;7237;49.500;11.400;2024-03-17T01:53:48;5.00;;;1.50;;
14306;SDS011;7237;49.500;11.400;2024-03-17T01:56:15;2.77;;;1.60;;
14306;SDS011;7237;49.500;11.400;2024-03-17T01:58:43;3.40;;;1.30;;
14306;SDS011;7237;49.500;11.400;2024-03-17T02:01:10;1.90;;;1.40;;
14306;SDS011;7237;49.500;11.400;2024-03-17T02:03:39;1.47;;;1.33;;
14306;SDS011;7237;49.500;11.400;2024-03-17T02:06:06;2.53;;;1.47;;
14306;SDS011;7237;49.500;11.400;2024-03-17T02:08:45;1.60;;;1.50;;
14306;SDS011;7237;49.500;11.400;2024-03-17T02:11:14;1.23;;;1.13;;
14306;SDS011;7237;49.500;11.400;2024-03-17T02:13:50;2.00;;;1.37;;
14306;SDS011;7237;49.500;11.400;2024-03-17T02:16:17;2.20;;;1.50;;
14306;SDS011;7237;49.500;11.400;2024-03-17T02:18:44;2.23;;;1.60;;
14306;SDS011;7237;49.500;11.400;2024-03-17T02:21:12;1.70;;;1.60;;
14306;SDS011;7237;49.500;11.400;2024-03-17T02:23:41;2.67;;;1.60;;
14306;SDS011;7237;49.500;11.400;2024-03-17T02:26:08;1.90;;;1.70;;
14306;SDS011;7237;49.500;11.400;2024-03-17T02:28:38;1.83;;;1.50;;
14306;SDS011;7237;49.500;11.400;2024-03-17T02:31:04;3.53;;;1.57;;
14306;SDS011;7237;49.500;11.400;2024-03-17T02:33:31;2.43;;;1.50;;
14306;SDS011;7237;49.500;11.400;2024-03-17T02:35:58;4.10;;;1.40;;
14306;SDS011;7237;49.500;11.400;2024-03-17T02:38:26;2.60;;;1.57;;
14306;SDS011;7237;49.500;11.400;2024-03-17T02:41:12;2.53;;;1.50;;
14306;SDS011;7237;49.500;11.400;2024-03-17T02:43:39;2.77;;;1.80;;
14306;SDS011;7237;49.500;11.400;2024-03-17T02:46:06;1.63;;;1.43;;
14306;SDS011;7237;49.500;11.400;2024-03-17T02:48:33;1.83;;;1.33;;
14306;SDS011;7237;49.500;11.400;2024-03-17T02:51:01;4.97;;;1.50;;
14306;SDS011;7237;49.500;11.400;2024-03-17T02:53:29;4.07;;;1.60;;
14306;SDS011;7237;49.500;11.400;2024-03-17T02:55:56;1.70;;;1.40;;
14306;SDS011;7237;49.500;11.400;2024-03-17T02:58:25;2.17;;;1.40;;
14306;SDS011;7237;49.500;11.400;2024-03-17T03:00:52;1.50;;;1.40;;
14306;SDS011;7237;49.500;11.400;2024-03-17T03:03:19;2.87;;;1.47;;
14306;SDS011;7237;49.500;11.400;2024-03-17T03:05:46;1.30;;;1.20;;
14306;SDS011;7237;49.500;11.400;2024-03-17T03:08:14;2.07;;;1.60;;
14306;SDS011;7237;49.500;11.400;2024-03-17T03:10:43;2.87;;;1.90;;
14306;SDS011;7237;49.500;11.400;2024-03-17T03:13:10;1.60;;;1.40;;
14306;SDS011;7237;49.500;11.400;2024-03-17T03:15:39;2.33;;;1.30;;
14306;SDS011;7237;49.500;11.400;2024-03-17T03:18:06;5.47;;;1.80;;
14306;SDS011;7237;49.500;11.400;2024-03-17T03:20:33;1.90;;;1.50;;
14306;SDS011;7237;49.500;11.400;2024-03-17T03:23:01;3.50;;;1.50;;
14306;SDS011;7237;49.500;11.400;2024-03-17T03:25:28;1.47;;;1.37;;
14306;SDS011;7237;49.500;11.400;2024-03-17T03:27:55;4.30;;;1.90;;
14306;SDS011;7237;49.500;11.400;2024-03-17T03:30:22;2.03;;;1.83;;
14306;SDS011;7237;49.500;11.400;2024-03-17T03:32:51;2.00;;;1.80;;
14306;SDS011;7237;49.500;11.400;2024-03-17T03:35:18;3.23;;;1.90;;
14306;SDS011;7237;49.500;11.400;2024-03-17T03:37:46;3.03;;;1.80;;
14306;SDS011;7237;49.500;11.400;2024-03-17T03:40:13;2.73;;;1.90;;
14306;SDS011;7237;49.500;11.400;2024-03-17T03:42:42;3.97;;;1.70;;
14306;SDS011;7237;49.500;11.400;2024-03-17T03:45:09;3.33;;;1.93;;
14306;SDS011;7237;49.500;11.400;2024-03-17T03:47:37;3.47;;;1.60;;
14306;SDS011;7237;49.500;11.400;2024-03-17T03:50:07;6.07;;;1.70;;
14306;SDS011;7237;49.500;11.400;2024-03-17T03:52:35;2.17;;;1.77;;
14306;SDS011;7237;49.500;11.400;2024-03-17T03:55:02;5.57;;;2.00;;
14306;SDS011;7237;49.500;11.400;2024-03-17T03:57:32;3.57;;;1.53;;
14306;SDS011;7237;49.500;11.400;2024-03-17T03:59:59;4.60;;;1.87;;
14306;SDS011;7237;49.500;11.400;2024-03-17T04:02:30;3.03;;;1.83;;
14306;SDS011;7237;49.500;11.400;2024-03-17T04:04:59;2.97;;;1.77;;
14306;SDS011;7237;49.500;11.400;2024-03-17T04:07:27;3.23;;;1.80;;
14306;SDS011;7237;49.500;11.400;2024-03-17T04:09:54;5.17;;;1.80;;
14306;SDS011;7237;49.500;11.400;2024-03-17T04:12:23;1.93;;;1.80;;
14306;SDS011;7237;49.500;11.400;2024-03-17T04:14:50;4.17;;;1.80;;
14306;SDS011;7237;49.500;11.400;2024-03-17T04:17:18;2.73;;;2.17;;
14306;SDS011;7237;49.500;11.400;2024-03-17T04:19:46;2.90;;;1.60;;
14306;SDS011;7237;49.500;11.400;2024-03-17T04:22:14;4.03;;;1.60;;
14306;SDS011;7237;49.500;11.400;2024-03-17T04:24:43;4.07;;;1.77;;
14306;SDS011;7237;49.500;11.400;2024-03-17T04:27:10;5.37;;;1.60;;
14306;SDS011;7237;49.500;11.400;2024-03-17T04:29:38;4.87;;;1.60;;
14306;SDS011;7237;49.500;11.400;2024-03-17T04:32:05;2.40;;;1.47;;
14306;SDS011;7237;49.500;11.400;2024-03-17T04:34:32;4.37;;;1.60;;
14306;SDS011;7237;49.500;11.400;2024-03-17T04:36:59;3.60;;;1.70;;
14306;SDS011;7237;49.500;11.400;2024-03-17T04:39:28;3.57;;;2.00;;
14306;SDS011;7237;49.500;11.400;2024-03-17T04:41:57;3.67;;;1.80;;
14306;SDS011;7237;49.500;11.400;2024-03-17T04:44:25;4.50;;;1.90;;
14306;SDS011;7237;49.500;11.400;2024-03-17T04:46:52;4.67;;;1.80;;
14306;SDS011;7237;49.500;11.400;2024-03-17T04:49:20;3.13;;;2.00;;
14306;SDS011;7237;49.500;11.400;2024-03-17T04:51:47;5.67;;;2.10;;
14306;SDS011;7237;49.500;11.400;2024-03-17T04:54:14;5.53;;;2.17;;
14306;SDS011;7237;49.500;11.400;2024-03-17T04:56:42;3.10;;;1.63;;
14306;SDS011;7237;49.500;11.400;2024-03-17T04:59:10;3.80;;;1.87;;
14306;SDS011;7237;49.500;11.400;2024-03-17T05:01:37;5.63;;;1.57;;
14306;SDS011;7237;49.500;11.400;2024-03-17T05:04:04;4.57;;;1.97;;
14306;SDS011;7237;49.500;11.400;2024-03-17T05:06:31;3.80;;;2.00;;
14306;SDS011;7237;49.500;11.400;2024-03-17T05:08:58;3.47;;;1.70;;
14306;SDS011;7237;49.500;11.400;2024-03-17T05:11:25;4.33;;;1.77;;
14306;SDS011;7237;49.500;11.400;2024-03-17T05:13:52;2.70;;;1.83;;
14306;SDS011;7237;49.500;11.400;2024-03-17T05:16:21;2.57;;;1.90;;
14306;SDS011;7237;49.500;11.400;2024-03-17T05:18:49;5.13;;;1.50;;
14306;SDS011;7237;49.500;11.400;2024-03-17T05:21:16;3.40;;;1.60;;
14306;SDS011;7237;49.500;11.400;2024-03-17T05:23:43;4.53;;;1.90;;
14306;SDS011;7237;49.500;11.400;2024-03-17T05:26:10;4.70;;;2.00;;
14306;SDS011;7237;49.500;11.400;2024-03-17T05:28:37;3.00;;;2.10;;
14306;SDS011;7237;49.500;11.400;2024-03-17T05:31:04;4.03;;;1.77;;
14306;SDS011;7237;49.500;11.400;2024-03-17T05:33:33;3.47;;;1.80;;
14306;SDS011;7237;49.500;11.400;2024-03-17T05:36:00;2.50;;;1.60;;
14306;SDS011;7237;49.500;11.400;2024-03-17T05:38:28;4.00;;;2.03;;
14306;SDS011;7237;49.500;11.400;2024-03-17T05:40:55;5.30;;;2.07;;
14306;SDS011;7237;49.500;11.400;2024-03-17T05:43:23;5.63;;;1.47;;
14306;SDS011;7237;49.500;11.400;2024-03-17T05:45:51;2.33;;;1.87;;
14306;SDS011;7237;49.500;11.400;2024-03-17T05:48:18;6.47;;;1.80;;
14306;SDS011;7237;49.500;11.400;2024-03-17T05:50:46;6.80;;;2.00;;
14306;SDS011;7237;49.500;11.400;2024-03-17T05:53:13;2.93;;;1.90;;
14306;SDS011;7237;49.500;11.400;2024-03-17T05:55:41;4.80;;;1.70;;
14306;SDS011;7237;49.500;11.400;2024-03-17T05:58:08;2.40;;;1.80;;
14306;SDS011;7237;49.500;11.400;2024-03-17T06:00:35;3.30;;;2.27;;
14306;SDS011;7237;49.500;11.400;2024-03-17T06:03:03;5.07;;;2.20;;
14306;SDS011;7237;49.500;11.400;2024-03-17T06:05:31;6.13;;;1.80;;
14306;SDS011;7237;49.500;11.400;2024-03-17T06:08:00;5.00;;;1.50;;
14306;SDS011;7237;49.500;11.400;2024-03-17T06:10:27;2.07;;;1.70;;
14306;SDS011;7237;49.500;11.400;2024-03-17T06:12:55;4.53;;;1.80;;
14306;SDS011;7237;49.500;11.400;2024-03-17T06:15:22;5.83;;;1.53;;
14306;SDS011;7237;49.500;11.400;2024-03-17T06:17:49;5.47;;;1.67;;
14306;SDS011;7237;49.500;11.400;2024-03-17T06:20:17;3.30;;;1.50;;
14306;SDS011;7237;49.500;11.400;2024-03-17T06:22:44;3.70;;;1.70;;
14306;SDS011;7237;49.500;11.400;2024-03-17T06:25:13;3.07;;;1.47;;
14306;SDS011;7237;49.500;11.400;2024-03-17T06:27:40;1.60;;;1.50;;
14306;SDS011;7237;49.500;11.400;2024-03-17T06:30:10;4.43;;;1.77;;
14306;SDS011;7237;49.500;11.400;2024-03-17T06:32:38;3.80;;;1.67;;
14306;SDS011;7237;49.500;11.400;2024-03-17T06:35:06;3.27;;;1.77;;
14306;SDS011;7237;49.500;11.400;2024-03-17T06:37:33;4.63;;;1.90;;
14306;SDS011;7237;49.500;11.400;2024-03-17T06:40:00;3.10;;;2.07;;
14306;SDS011;7237;49.500;11.400;2024-03-17T06:42:29;3.77;;;1.60;;
14306;SDS011;7237;49.500;11.400;2024-03-17T06:44:56;3.77;;;1.47;;
14306;SDS011;7237;49.500;11.400;2024-03-17T06:47:23;7.40;;;2.00;;
14306;SDS011;7237;49.500;11.400;2024-03-17T06:49:51;2.97;;;1.90;;
14306;SDS011;7237;49.500;11.400;2024-03-17T06:52:18;2.87;;;1.60;;
14306;SDS011;7237;49.500;11.400;2024-03-17T06:54:46;3.23;;;1.77;;
14306;SDS011;7237;49.500;11.400;2024-03-17T06:57:15;3.37;;;1.90;;
14306;SDS011;7237;49.500;11.400;2024-03-17T06:59:44;5.50;;;1.80;;
14306;SDS011;7237;49.500;11.400;2024-03-17T07:02:13;3.97;;;1.80;;
14306;SDS011;7237;49.500;11.400;2024-03-17T07:04:42;4.27;;;2.13;;
14306;SDS011;7237;49.500;11.400;2024-03-17T07:07:09;5.50;;;1.73;;
14306;SDS011;7237;49.500;11.400;2024-03-17T07:09:38;4.80;;;1.83;;
14306;SDS011;7237;49.500;11.400;2024-03-17T07:12:05;3.23;;;1.93;;
14306;SDS011;7237;49.500;11.400;2024-03-17T07:14:32;5.27;;;1.77;;
14306;SDS011;7237;49.500;11.400;2024-03-17T07:17:01;3.90;;;1.90;;
14306;SDS011;7237;49.500;11.400;2024-03-17T07:19:28;3.10;;;1.70;;
14306;SDS011;7237;49.500;11.400;2024-03-17T07:21:56;5.27;;;1.60;;
14306;SDS011;7237;49.500;11.400;2024-03-17T07:24:23;5.07;;;2.10;;
14306;SDS011;7237;49.500;11.400;2024-03-17T07:26:50;2.57;;;2.00;;
14306;SDS011;7237;49.500;11.400;2024-03-17T07:29:17;2.57;;;1.60;;
14306;SDS011;7237;49.500;11.400;2024-03-17T07:31:45;3.07;;;1.80;;
14306;SDS011;7237;49.500;11.400;2024-03-17T07:34:13;2.33;;;1.40;;
14306;SDS011;7237;49.500;11.400;2024-03-17T07:36:40;2.77;;;1.77;;
14306;SDS011;7237;49.500;11.400;2024-03-17T07:39:07;1.90;;;1.70;;
14306;SDS011;7237;49.500;11.400;2024-03-17T07:41:35;3.17;;;1.63;;
14306;SDS011;7237;49.500;11.400;2024-03-17T07:44:02;4.20;;;2.03;;
14306;SDS011;7237;49.500;11.400;2024-03-17T07:46:29;3.83;;;1.90;;
14306;SDS011;7237;49.500;11.400;2024-03-17T07:48:56;2.67;;;1.60;;
14306;SDS011;7237;49.500;11.400;2024-03-17T07:51:24;2.10;;;1.80;;
14306;SDS011;7237;49.500;11.400;2024-03-17T07:53:51;1.93;;;1.73;;
14306;SDS011;7237;49.500;11.400;2024-03-17T07:56:18;4.33;;;1.90;;
14306;SDS011;7237;49.500;11.400;2024-03-17T07:58:46;4.40;;;1.73;;
14306;SDS011;7237;49.500;11.400;2024-03-17T08:01:15;2.80;;;1.93;;
14306;SDS011;7237;49.500;11.400;2024-03-17T08:03:44;2.80;;;1.80;;
14306;SDS011;7237;49.500;11.400;2024-03-17T08:06:11;5.63;;;1.83;;
14306;SDS011;7237;49.500;11.400;2024-03-17T08:08:40;2.93;;;1.60;;
14306;SDS011;7237;49.500;11.400;2024-03-17T08:11:07;1.90;;;1.70;;
14306;SDS011;7237;49.500;11.400;2024-03-17T08:13:34;2.63;;;1.80;;
14306;SDS011;7237;49.500;11.400;2024-03-17T08:16:02;2.63;;;1.97;;
14306;SDS011;7237;49.500;11.400;2024-03-17T08:18:31;3.23;;;1.70;;
14306;SDS011;7237;49.500;11.400;2024-03-17T08:20:59;2.53;;;1.67;;
14306;SDS011;7237;49.500;11.400;2024-03-17T08:23:26;4.37;;;1.90;;
14306;SDS011;7237;49.500;11.400;2024-03-17T08:25:54;3.37;;;2.00;;
14306;SDS011;7237;49.500;11.400;2024-03-17T08:28:22;2.10;;;1.80;;
14306;SDS011;7237;49.500;11.400;2024-03-17T08:30:52;1.97;;;1.53;;
14306;SDS011;7237;49.500;11.400;2024-03-17T08:33:19;5.80;;;2.00;;
14306;SDS011;7237;49.500;11.400;2024-03-17T08:35:54;4.40;;;2.00;;
14306;SDS011;7237;49.500;11.400;2024-03-17T08:38:21;3.80;;;1.70;;
14306;SDS011;7237;49.500;11.400;2024-03-17T08:40:48;3.30;;;1.73;;
14306;SDS011;7237;49.500;11.400;2024-03-17T08:43:16;2.07;;;1.80;;
14306;SDS011;7237;49.500;11.400;2024-03-17T08:45:44;6.83;;;2.10;;
14306;SDS011;7237;49.500;11.400;2024-03-17T08:48:11;4.43;;;2.23;;
14306;SDS011;7237;49.500;11.400;2024-03-17T08:50:38;2.73;;;2.03;;
14306;SDS011;7237;49.500;11.400;2024-03-17T08:53:05;2.80;;;1.70;;
14306;SDS011;7237;49.500;11.400;2024-03-17T08:55:32;3.73;;;2.37;;
14306;SDS011;7237;49.500;11.400;2024-03-17T08:57:59;3.87;;;1.97;;
14306;SDS011;7237;49.500;11.400;2024-03-17T09:00:28;1.90;;;1.70;;
14306;SDS011;7237;49.500;11.400;2024-03-17T09:02:57;1.90;;;1.53;;
14306;SDS011;7237;49.500;11.400;2024-03-17T09:05:24;1.67;;;1.47;;
14306;SDS011;7237;49.500;11.400;2024-03-17T09:07:51;1.87;;;1.70;;
14306;SDS011;7237;49.500;11.400;2024-03-17T09:10:20;2.47;;;1.80;;
14306;SDS011;7237;49.500;11.400;2024-03-17T09:12:47;2.80;;;1.90;;
14306;SDS011;7237;49.500;11.400;2024-03-17T09:15:14;1.73;;;1.63;;
14306;SDS011;7237;49.500;11.400;2024-03-17T09:17:42;2.77;;;2.00;;
14306;SDS011;7237;49.500;11.400;2024-03-17T09:20:11;2.43;;;1.80;;
14306;SDS011;7237;49.500;11.400;2024-03-17T09:22:39;2.70;;;2.07;;
14306;SDS011;7237;49.500;11.400;2024-03-17T09:25:07;2.27;;;2.07;;
14306;SDS011;7237;49.500;11.400;2024-03-17T09:27:34;2.00;;;1.70;;
14306;SDS011;7237;49.500;11.400;2024-03-17T09:30:02;1.97;;;1.73;;
14306;SDS011;7237;49.500;11.400;2024-03-17T09:32:33;2.57;;;2.10;;
14306;SDS011;7237;49.500;11.400;2024-03-17T09:35:02;2.17;;;1.90;;
14306;SDS011;7237;49.500;11.400;2024-03-17T09:37:29;2.20;;;2.00;;
14306;SDS011;7237;49.500;11.400;2024-03-17T09:39:57;3.50;;;2.40;;
14306;SDS011;7237;49.500;11.400;2024-03-17T09:42:25;3.50;;;2.00;;
14306;SDS011;7237;49.500;11.400;2024-03-17T09:44:52;1.73;;;1.60;;
14306;SDS011;7237;49.500;11.400;2024-03-17T09:47:21;3.17;;;2.47;;
14306;SDS011;7237;49.500;11.400;2024-03-17T09:49:49;2.93;;;1.90;;
14306;SDS011;7237;49.500;11.400;2024-03-17T09:52:19;2.20;;;2.00;;
14306;SDS011;7237;49.500;11.400;2024-03-17T09:54:48;2.10;;;1.87;;
14306;SDS011;7237;49.500;11.400;2024-03-17T09:57:16;2.33;;;2.00;;
14306;SDS011;7237;49.500;11.400;2024-03-17T09:59:49;3.87;;;2.20;;
14306;SDS011;7237;49.500;11.400;2024-03-17T10:02:17;4.60;;;2.23;;
14306;SDS011;7237;49.500;11.400;2024-03-17T10:04:44;2.53;;;2.17;;
14306;SDS011;7237;49.500;11.400;2024-03-17T10:07:11;2.00;;;1.83;;
14306;SDS011;7237;49.500;11.400;2024-03-17T10:09:40;3.00;;;2.67;;
14306;SDS011;7237;49.500;11.400;2024-03-17T10:12:23;2.30;;;2.10;;
14306;SDS011;7237;49.500;11.400;2024-03-17T10:14:57;2.77;;;2.40;;
14306;SDS011;7237;49.500;11.400;2024-03-17T10:17:29;2.60;;;1.90;;
14306;SDS011;7237;49.500;11.400;2024-03-17T10:20:09;2.30;;;1.80;;
14306;SDS011;7237;49.500;11.400;2024-03-17T10:22:38;3.10;;;2.10;;
14306;SDS011;7237;49.500;11.400;2024-03-17T10:25:06;2.40;;;1.90;;
14306;SDS011;7237;49.500;11.400;2024-03-17T10:27:42;1.87;;;1.77;;
14306;SDS011;7237;49.500;11.400;2024-03-17T10:30:13;3.67;;;2.47;;
14306;SDS011;7237;49.500;11.400;2024-03-17T10:32:44;2.37;;;2.17;;
14306;SDS011;7237;49.500;11.400;2024-03-17T10:35:24;10.87;;;2.40;;
14306;SDS011;7237;49.500;11.400;2024-03-17T10:37:55;3.60;;;2.10;;
14306;SDS011;7237;49.500;11.400;2024-03-17T10:40:24;2.53;;;2.27;;
14306;SDS011;7237;49.500;11.400;2024-03-17T10:42:52;3.60;;;2.00;;
14306;SDS011;7237;49.500;11.400;2024-03-17T10:45:19;2.03;;;1.83;;
14306;SDS011;7237;49.500;11.400;2024-03-17T10:47:47;2.20;;;2.00;;
14306;SDS011;7237;49.500;11.400;2024-03-17T10:50:16;2.83;;;2.33;;
14306;SDS011;7237;49.500;11.400;2024-03-17T10:52:44;2.63;;;2.30;;
14306;SDS011;7237;49.500;11.400;2024-03-17T10:55:19;3.37;;;2.00;;
14306;SDS011;7237;49.500;11.400;2024-03-17T10:57:49;1.97;;;1.87;;
14306;SDS011;7237;49.500;11.400;2024-03-17T11:00:16;3.37;;;2.27;;
14306;SDS011;7237;49.500;11.400;2024-03-17T11:02:44;3.33;;;2.37;;
14306;SDS011;7237;49.500;11.400;2024-03-17T11:05:14;2.30;;;2.00;;
14306;SDS011;7237;49.500;11.400;2024-03-17T11:07:42;2.47;;;2.27;;
14306;SDS011;7237;49.500;11.400;2024-03-17T11:10:11;3.03;;;2.37;;
14306;SDS011;7237;49.500;11.400;2024-03-17T11:12:41;2.47;;;2.27;;
14306;SDS011;7237;49.500;11.400;2024-03-17T11:20:56;3.40;;;2.40;;
14306;SDS011;7237;49.500;11.400;2024-03-17T11:23:25;2.10;;;2.00;;
14306;SDS011;7237;49.500;11.400;2024-03-17T11:25:54;2.73;;;2.10;;
14306;SDS011;7237;49.500;11.400;2024-03-17T11:31:03;2.20;;;2.00;;
14306;SDS011;7237;49.500;11.400;2024-03-17T11:33:49;3.10;;;2.10;;
14306;SDS011;7237;49.500;11.400;2024-03-17T11:36:36;2.10;;;1.90;;
14306;SDS011;7237;49.500;11.400;2024-03-17T11:39:04;3.63;;;2.40;;
14306;SDS011;7237;49.500;11.400;2024-03-17T11:41:42;2.17;;;1.70;;
14306;SDS011;7237;49.500;11.400;2024-03-17T11:44:15;2.33;;;2.13;;
14306;SDS011;7237;49.500;11.400;2024-03-17T11:46:43;2.50;;;2.03;;
14306;SDS011;7237;49.500;11.400;2024-03-17T11:49:17;3.00;;;2.10;;
14306;SDS011;7237;49.500;11.400;2024-03-17T11:51:44;3.43;;;2.17;;
14306;SDS011;7237;49.500;11.400;2024-03-17T11:54:13;3.47;;;2.23;;
14306;SDS011;7237;49.500;11.400;2024-03-17T11:56:43;2.50;;;2.30;;
14306;SDS011;7237;49.500;11.400;2024-03-17T11:59:11;2.27;;;2.07;;
14306;SDS011;7237;49.500;11.400;2024-03-17T12:01:37;2.83;;;1.97;;
14306;SDS011;7237;49.500;11.400;2024-03-17T12:04:04;2.30;;;1.95;;
14306;SDS011;7237;49.500;11.400;2024-03-17T12:06:32;4.15;;;2.28;;
14306;SDS011;7237;49.500;11.400;2024-03-17T12:09:11;3.75;;;2.42;;
14306;SDS011;7237;49.500;11.400;2024-03-17T12:11:43;2.50;;;2.25;;
14306;SDS011;7237;49.500;11.400;2024-03-17T12:14:16;3.15;;;2.13;;
14306;SDS011;7237;49.500;11.400;2024-03-17T12:16:50;14.32;;;6.90;;
14306;SDS011;7237;49.500;11.400;2024-03-17T12:19:18;8.27;;;4.50;;
14306;SDS011;7237;49.500;11.400;2024-03-17T12:21:46;4.50;;;2.40;;
14306;SDS011;7237;49.500;11.400;2024-03-17T12:24:15;2.60;;;2.30;;
14306;SDS011;7237;49.500;11.400;2024-03-17T12:26:42;2.50;;;2.30;;
14306;SDS011;7237;49.500;11.400;2024-03-17T12:29:25;2.63;;;2.33;;
14306;SDS011;7237;49.500;11.400;2024-03-17T12:31:52;2.83;;;2.50;;
14306;SDS011;7237;49.500;11.400;2024-03-17T12:34:20;3.25;;;2.50;;
14306;SDS011;7237;49.500;11.400;2024-03-17T12:36:48;2.28;;;1.92;;
14306;SDS011;7237;49.500;11.400;2024-03-17T12:39:17;4.15;;;2.20;;
14306;SDS011;7237;49.500;11.400;2024-03-17T12:41:43;3.83;;;2.25;;
14306;SDS011;7237;49.500;11.400;2024-03-17T12:44:20;4.25;;;2.42;;
14306;SDS011;7237;49.500;11.400;2024-03-17T12:46:46;2.83;;;2.20;;
14306;SDS011;7237;49.500;11.400;2024-03-17T12:49:13;2.50;;;2.30;;
14306;SDS011;7237;49.500;11.400;2024-03-17T12:51:40;2.63;;;2.35;;
14306;SDS011;7237;49.500;11.400;2024-03-17T12:54:15;2.27;;;2.03;;
14306;SDS011;7237;49.500;11.400;2024-03-17T12:56:42;5.40;;;2.67;;
14306;SDS011;7237;49.500;11.400;2024-03-17T12:59:36;2.43;;;2.13;;
14306;SDS011;7237;49.500;11.400;2024-03-17T13:02:21;2.70;;;2.50;;
14306;SDS011;7237;49.500;11.400;2024-03-17T13:05:04;2.83;;;2.37;;
14306;SDS011;7237;49.500;11.400;2024-03-17T13:07:32;3.53;;;2.50;;
14306;SDS011;7237;49.500;11.400;2024-03-17T13:10:00;2.83;;;2.63;;
14306;SDS011;7237;49.500;11.400;2024-03-17T13:12:29;5.33;;;3.43;;
14306;SDS011;7237;49.500;11.400;2024-03-17T13:14:56;3.60;;;2.73;;
14306;SDS011;7237;49.500;11.400;2024-03-17T13:17:23;3.50;;;3.17;;
14306;SDS011;7237;49.500;11.400;2024-03-17T13:19:50;3.03;;;2.73;;
14306;SDS011;7237;49.500;11.400;2024-03-17T13:22:17;3.40;;;3.00;;
14306;SDS011;7237;49.500;11.400;2024-03-17T13:24:44;2.65;;;2.40;;
14306;SDS011;7237;49.500;11.400;2024-03-17T13:27:13;3.50;;;2.60;;
14306;SDS011;7237;49.500;11.400;2024-03-17T13:29:41;3.55;;;2.67;;
14306;SDS011;7237;49.500;11.400;2024-03-17T13:32:09;3.53;;;2.70;;
14306;SDS011;7237;49.500;11.400;2024-03-17T13:34:36;2.78;;;2.58;;
14306;SDS011;7237;49.500;11.400;2024-03-17T13:37:03;3.53;;;3.22;;
14306;SDS011;7237;49.500;11.400;2024-03-17T13:39:30;3.92;;;3.13;;
14306;SDS011;7237;49.500;11.400;2024-03-17T13:41:58;4.15;;;2.95;;
14306;SDS011;7237;49.500;11.400;2024-03-17T13:44:29;3.78;;;3.30;;
14306;SDS011;7237;49.500;11.400;2024-03-17T13:46:56;3.80;;;2.88;;
14306;SDS011;7237;49.500;11.400;2024-03-17T13:49:24;2.95;;;2.72;;
14306;SDS011;7237;49.500;11.400;2024-03-17T13:51:51;4.93;;;3.03;;
14306;SDS011;7237;49.500;11.400;2024-03-17T13:54:19;4.13;;;3.10;;
14306;SDS011;7237;49.500;11.400;2024-03-17T13:56:46;3.30;;;3.00;;
14306;SDS011;7237;49.500;11.400;2024-03-17T13:59:13;3.72;;;3.20;;
14306;SDS011;7237;49.500;11.400;2024-03-17T14:01:42;3.97;;;3.00;;
14306;SDS011;7237;49.500;11.400;2024-03-17T14:04:11;4.60;;;3.38;;
14306;SDS011;7237;49.500;11.400;2024-03-17T14:06:40;4.13;;;3.23;;
14306;SDS011;7237;49.500;11.400;2024-03-17T14:09:07;4.00;;;3.60;;
14306;SDS011;7237;49.500;11.400;2024-03-17T14:11:35;3.43;;;3.13;;
14306;SDS011;7237;49.500;11.400;2024-03-17T14:14:02;3.17;;;2.87;;
14306;SDS011;7237;49.500;11.400;2024-03-17T14:16:30;6.13;;;3.20;;
14306;SDS011;7237;49.500;11.400;2024-03-17T14:18:59;5.10;;;3.13;;
14306;SDS011;7237;49.500;11.400;2024-03-17T14:21:26;3.70;;;3.10;;
14306;SDS011;7237;49.500;11.400;2024-03-17T14:23:53;3.23;;;2.93;;
14306;SDS011;7237;49.500;11.400;2024-03-17T14:26:20;3.38;;;3.08;;
14306;SDS011;7237;49.500;11.400;2024-03-17T14:28:48;3.47;;;3.17;;
14306;SDS011;7237;49.500;11.400;2024-03-17T14:31:15;3.90;;;3.50;;
14306;SDS011;7237;49.500;11.400;2024-03-17T14:33:42;4.78;;;3.03;;
14306;SDS011;7237;49.500;11.400;2024-03-17T14:36:11;3.77;;;3.23;;
14306;SDS011;7237;49.500;11.400;2024-03-17T14:38:38;4.00;;;3.37;;
14306;SDS011;7237;49.500;11.400;2024-03-17T14:41:05;3.80;;;3.40;;
14306;SDS011;7237;49.500;11.400;2024-03-17T14:43:33;4.10;;;3.70;;
14306;SDS011;7237;49.500;11.400;2024-03-17T14:46:03;3.87;;;3.47;;
14306;SDS011;7237;49.500;11.400;2024-03-17T14:48:32;4.00;;;3.50;;
14306;SDS011;7237;49.500;11.400;2024-03-17T14:50:59;3.93;;;3.40;;
14306;SDS011;7237;49.500;11.400;2024-03-17T14:53:28;4.23;;;3.57;;
14306;SDS011;7237;49.500;11.400;2024-03-17T14:55:55;3.27;;;3.03;;
14306;SDS011;7237;49.500;11.400;2024-03-17T14:58:22;3.70;;;3.40;;
14306;SDS011;7237;49.500;11.400;2024-03-17T15:00:49;5.10;;;3.77;;
14306;SDS011;7237;49.500;11.400;2024-03-17T15:03:17;3.83;;;3.43;;